createdAt,value
2018-05-15T00:02:07.206Z,17.70
2018-05-15T00:04:35.479Z,17.70
2018-05-15T00:07:03.734Z,17.60
2018-05-15T00:09:31.232Z,17.60
2018-05-15T00:11:58.766Z,17.50
2018-05-15T00:14:27.046Z,17.40
2018-05-15T00:16:55.308Z,17.40
2018-05-15T00:19:23.607Z,17.40
2018-05-15T00:21:51.158Z,17.40
2018-05-15T00:24:19.432Z,17.30
2018-05-15T00:26:47.687Z,17.30
2018-05-15T00:29:15.274Z,17.20
2018-05-15T00:31:43.746Z,17.20
2018-05-15T00:34:12.023Z,17.10
2018-05-15T00:36:40.288Z,17.10
2018-05-15T00:39:08.555Z,17.00
2018-05-15T00:41:36.063Z,16.90
2018-05-15T00:44:03.556Z,16.90
2018-05-15T00:46:31.067Z,16.80
2018-05-15T00:48:58.552Z,16.80
2018-05-15T00:51:26.064Z,16.80
2018-05-15T00:53:54.343Z,16.80
2018-05-15T00:56:22.729Z,16.70
2018-05-15T00:58:50.290Z,16.70
2018-05-15T01:01:17.840Z,16.70
2018-05-15T01:03:46.111Z,16.50
2018-05-15T01:06:14.394Z,16.50
2018-05-15T01:08:42.670Z,16.40
2018-05-15T01:11:10.943Z,16.40
2018-05-15T01:13:39.211Z,16.30
2018-05-15T01:16:07.487Z,16.30
2018-05-15T01:18:35.763Z,16.10
2018-05-15T01:21:04.095Z,16.10
2018-05-15T01:23:31.574Z,16.00
2018-05-15T01:25:59.087Z,16.00
2018-05-15T01:28:26.590Z,15.90
2018-05-15T01:30:54.101Z,15.90
2018-05-15T01:33:21.602Z,15.90
2018-05-15T01:35:49.119Z,15.90
2018-05-15T01:38:16.614Z,15.90
2018-05-15T01:40:44.213Z,15.90
2018-05-15T01:43:12.494Z,15.80
2018-05-15T01:45:40.062Z,15.80
2018-05-15T01:48:07.613Z,15.80
2018-05-15T01:50:35.171Z,15.80
2018-05-15T01:53:03.456Z,15.80
2018-05-15T01:55:30.962Z,15.70
2018-05-15T01:57:58.461Z,15.70
2018-05-15T02:00:26.747Z,15.70
2018-05-15T02:02:54.226Z,15.70
2018-05-15T02:05:21.742Z,15.70
2018-05-15T02:07:50.027Z,15.60
2018-05-15T02:10:18.282Z,15.60
2018-05-15T02:12:46.583Z,15.40
2018-05-15T02:15:14.863Z,15.40
2018-05-15T02:17:42.390Z,15.30
2018-05-15T02:20:09.882Z,15.30
2018-05-15T02:22:37.441Z,15.20
2018-05-15T02:25:04.994Z,15.20
2018-05-15T02:27:33.282Z,15.10
2018-05-15T02:30:00.838Z,15.10
2018-05-15T02:32:28.343Z,15.10
2018-05-15T02:34:55.852Z,15.00
2018-05-15T02:37:23.411Z,15.00
2018-05-15T02:39:50.972Z,14.90
2018-05-15T02:42:18.527Z,14.90
2018-05-15T02:44:46.086Z,14.80
2018-05-15T02:47:13.640Z,14.70
2018-05-15T02:49:41.910Z,14.50
2018-05-15T02:52:10.195Z,14.40
2018-05-15T02:54:38.472Z,14.30
2018-05-15T02:57:05.963Z,14.30
2018-05-15T02:59:33.482Z,14.20
2018-05-15T03:02:01.772Z,14.00
2018-05-15T03:04:29.287Z,14.00
2018-05-15T03:06:56.883Z,14.00
2018-05-15T03:09:24.434Z,13.90
2018-05-15T03:11:52.702Z,13.80
2018-05-15T03:14:21.002Z,13.70
2018-05-15T03:16:48.554Z,13.70
2018-05-15T03:19:16.046Z,13.70
2018-05-15T03:21:43.556Z,13.70
2018-05-15T03:24:11.811Z,13.80
2018-05-15T03:26:39.399Z,13.70
2018-05-15T03:29:07.650Z,13.80
2018-05-15T03:31:35.171Z,13.80
2018-05-15T03:34:02.696Z,13.90
2018-05-15T03:36:30.246Z,13.80
2018-05-15T03:38:58.499Z,13.80
2018-05-15T03:41:26.099Z,13.80
2018-05-15T03:43:53.650Z,13.70
2018-05-15T03:46:21.149Z,13.70
2018-05-15T03:48:48.658Z,13.80
2018-05-15T03:51:16.936Z,13.80
2018-05-15T03:53:45.218Z,13.80
2018-05-15T03:56:12.726Z,13.80
2018-05-15T03:58:40.245Z,13.80
2018-05-15T04:01:19.882Z,13.80
2018-05-15T04:03:59.483Z,13.80
2018-05-15T04:06:38.855Z,13.80
2018-05-15T04:09:07.226Z,13.70
2018-05-15T04:11:35.488Z,13.80
2018-05-15T04:14:03.079Z,13.80
2018-05-15T04:16:30.596Z,13.80
2018-05-15T04:18:58.183Z,14.20
2018-05-15T04:21:26.459Z,16.10
2018-05-15T04:23:54.840Z,17.20
2018-05-15T04:26:23.119Z,18.20
2018-05-15T04:28:50.635Z,18.20
2018-05-15T04:31:18.131Z,19.10
2018-05-15T04:33:46.424Z,20.50
2018-05-15T04:36:13.966Z,20.50
2018-05-15T04:38:42.443Z,21.70
2018-05-15T04:41:10.695Z,22.30
2018-05-15T04:43:38.409Z,22.20
2018-05-15T04:46:05.802Z,22.70
2018-05-15T04:48:33.304Z,23.10
2018-05-15T04:51:00.864Z,23.50
2018-05-15T04:53:28.433Z,23.90
2018-05-15T04:55:55.951Z,24.30
2018-05-15T04:58:24.259Z,25.00
2018-05-15T05:00:51.783Z,25.00
2018-05-15T05:03:19.292Z,25.30
2018-05-15T05:05:46.835Z,25.60
2018-05-15T05:08:14.388Z,25.90
2018-05-15T05:10:41.947Z,26.10
2018-05-15T05:13:10.214Z,26.40
2018-05-15T05:15:38.474Z,26.60
2018-05-15T05:18:05.988Z,26.60
2018-05-15T05:20:33.515Z,26.90
2018-05-15T05:23:01.787Z,27.00
2018-05-15T05:25:30.079Z,27.10
2018-05-15T05:27:57.593Z,27.00
2018-05-15T05:30:25.096Z,27.30
2018-05-15T05:32:52.652Z,27.40
2018-05-15T05:35:20.217Z,27.40
2018-05-15T05:37:47.735Z,27.20
2018-05-15T05:40:15.255Z,27.00
2018-05-15T05:42:42.784Z,26.90
2018-05-15T05:45:10.342Z,26.60
2018-05-15T05:47:37.935Z,26.00
2018-05-15T05:50:05.447Z,25.50
2018-05-15T05:52:33.735Z,24.40
2018-05-15T05:55:01.263Z,24.40
2018-05-15T05:57:28.770Z,23.90
2018-05-15T05:59:56.316Z,23.40
2018-05-15T06:02:23.970Z,22.90
2018-05-15T06:04:52.348Z,22.30
2018-05-15T06:07:20.651Z,22.20
2018-05-15T06:09:48.183Z,22.20
2018-05-15T06:12:16.448Z,21.90
2018-05-15T06:14:44.731Z,21.70
2018-05-15T06:17:12.998Z,21.40
2018-05-15T06:19:41.271Z,21.20
2018-05-15T06:22:09.557Z,21.00
2018-05-15T06:24:37.840Z,20.90
2018-05-15T06:27:06.114Z,20.70
2018-05-15T06:29:34.496Z,20.60
2018-05-15T06:32:02.054Z,20.60
2018-05-15T06:34:30.332Z,20.40
2018-05-15T06:36:57.845Z,20.30
2018-05-15T06:39:25.348Z,20.20
2018-05-15T06:41:52.915Z,20.10
2018-05-15T06:44:20.462Z,20.00
2018-05-15T06:46:48.722Z,20.00
2018-05-15T06:49:16.299Z,19.90
2018-05-15T06:51:43.858Z,19.80
2018-05-15T06:54:11.376Z,19.70
2018-05-15T06:56:38.982Z,19.70
2018-05-15T06:59:06.484Z,19.70
2018-05-15T07:01:33.967Z,19.80
2018-05-15T07:04:01.483Z,19.90
2018-05-15T07:06:29.011Z,20.00
2018-05-15T07:08:57.293Z,20.30
2018-05-15T07:11:24.819Z,20.30
2018-05-15T07:13:52.411Z,20.40
2018-05-15T07:16:19.958Z,20.50
2018-05-15T07:18:48.245Z,20.60
2018-05-15T07:21:15.794Z,20.60
2018-05-15T07:23:44.275Z,20.50
2018-05-15T07:26:12.543Z,20.50
2018-05-15T07:28:40.842Z,20.50
2018-05-15T07:31:08.388Z,20.50
2018-05-15T07:33:36.671Z,20.30
2018-05-15T07:36:04.167Z,20.30
2018-05-15T07:38:31.783Z,20.20
2018-05-15T07:41:00.039Z,20.20
2018-05-15T07:43:27.551Z,20.20
2018-05-15T07:45:55.041Z,20.20
2018-05-15T07:48:24.163Z,20.20
2018-05-15T07:50:52.447Z,20.30
2018-05-15T07:53:20.723Z,20.30
2018-05-15T07:55:49.007Z,20.40
2018-05-15T07:58:16.563Z,20.30
2018-05-15T08:00:44.084Z,20.40
2018-05-15T08:03:11.695Z,20.40
2018-05-15T08:05:39.211Z,20.30
2018-05-15T08:08:06.720Z,20.40
2018-05-15T08:10:34.256Z,20.50
2018-05-15T08:13:02.591Z,20.70
2018-05-15T08:15:30.112Z,20.70
2018-05-15T08:17:57.648Z,20.80
2018-05-15T08:20:25.211Z,20.80
2018-05-15T08:22:52.730Z,20.80
2018-05-15T08:25:20.241Z,20.80
2018-05-15T08:27:47.731Z,20.80
2018-05-15T08:30:15.338Z,20.90
2018-05-15T08:32:43.618Z,21.20
2018-05-15T08:35:11.894Z,21.20
2018-05-15T08:37:39.515Z,21.20
2018-05-15T08:40:07.012Z,21.30
2018-05-15T08:42:35.266Z,21.20
2018-05-15T08:45:02.755Z,21.20
2018-05-15T08:47:30.307Z,21.20
2018-05-15T08:49:57.880Z,21.20
2018-05-15T08:52:25.424Z,21.20
2018-05-15T08:54:53.700Z,21.20
2018-05-15T08:57:21.253Z,21.10
2018-05-15T08:59:49.540Z,21.20
2018-05-15T09:02:17.053Z,21.10
2018-05-15T09:04:44.555Z,21.20
2018-05-15T09:07:12.826Z,21.30
2018-05-15T09:09:41.075Z,21.40
2018-05-15T09:12:08.590Z,21.40
2018-05-15T09:14:36.124Z,21.60
2018-05-15T09:17:03.676Z,21.70
2018-05-15T09:19:31.955Z,21.80
2018-05-15T09:21:59.512Z,21.80
2018-05-15T09:24:27.891Z,21.70
2018-05-15T09:26:56.162Z,21.70
2018-05-15T09:29:24.649Z,21.90
2018-05-15T09:31:52.050Z,21.80
2018-05-15T09:34:19.661Z,21.90
2018-05-15T09:36:47.916Z,22.10
2018-05-15T09:39:15.430Z,22.10
2018-05-15T09:41:42.922Z,22.10
2018-05-15T09:44:10.443Z,22.10
2018-05-15T09:46:37.935Z,22.10
2018-05-15T09:49:05.443Z,22.10
2018-05-15T09:51:32.994Z,22.00
2018-05-15T09:54:00.655Z,22.00
2018-05-15T09:56:28.148Z,22.00
2018-05-15T09:58:55.680Z,22.00
2018-05-15T10:01:23.234Z,22.10
2018-05-15T10:03:50.736Z,22.20
2018-05-15T10:06:18.243Z,22.30
2018-05-15T10:08:45.803Z,22.40
2018-05-15T10:11:14.079Z,22.50
2018-05-15T10:13:41.585Z,22.50
2018-05-15T10:16:09.103Z,22.60
2018-05-15T10:18:36.611Z,22.60
2018-05-15T10:21:04.111Z,22.60
2018-05-15T10:23:32.487Z,22.50
2018-05-15T10:26:00.064Z,22.50
2018-05-15T10:28:27.579Z,22.50
2018-05-15T10:30:55.251Z,22.70
2018-05-15T10:33:23.535Z,22.80
2018-05-15T10:35:51.823Z,22.80
2018-05-15T10:38:20.107Z,22.90
2018-05-15T10:40:48.579Z,23.00
2018-05-15T10:43:16.141Z,22.90
2018-05-15T10:45:43.695Z,23.00
2018-05-15T10:48:11.255Z,23.00
2018-05-15T10:50:39.648Z,23.00
2018-05-15T10:53:07.151Z,22.90
2018-05-15T10:55:34.666Z,22.90
2018-05-15T10:58:02.214Z,23.00
2018-05-15T11:00:29.782Z,23.10
2018-05-15T11:02:57.282Z,23.10
2018-05-15T11:05:24.795Z,23.10
2018-05-15T11:07:52.291Z,23.10
2018-05-15T11:10:19.826Z,23.20
2018-05-15T11:12:47.410Z,23.30
2018-05-15T11:15:14.874Z,23.20
2018-05-15T11:17:42.383Z,23.30
2018-05-15T11:20:21.838Z,23.20
2018-05-15T11:23:01.355Z,23.10
2018-05-15T11:25:28.926Z,22.90
2018-05-15T11:27:56.569Z,22.80
2018-05-15T11:30:24.063Z,22.80
2018-05-15T11:32:51.586Z,22.60
2018-05-15T11:35:20.642Z,22.50
2018-05-15T11:37:48.187Z,22.50
2018-05-15T11:40:15.683Z,22.50
2018-05-15T11:42:43.962Z,22.60
2018-05-15T11:45:12.249Z,22.70
2018-05-15T11:47:40.709Z,22.70
2018-05-15T11:50:09.446Z,22.80
2018-05-15T11:52:36.885Z,22.70
2018-05-15T11:55:04.215Z,22.80
2018-05-15T11:57:32.507Z,22.80
2018-05-15T12:00:00.937Z,22.80
2018-05-15T12:02:28.446Z,22.80
2018-05-15T12:04:55.863Z,22.80
2018-05-15T12:07:23.442Z,22.70
2018-05-15T12:09:51.704Z,22.90
2018-05-15T12:12:19.299Z,22.90
2018-05-15T12:14:46.843Z,22.90
2018-05-15T12:17:14.387Z,22.90
2018-05-15T12:19:43.392Z,22.90
2018-05-15T12:22:11.680Z,22.80
2018-05-15T12:24:39.995Z,22.80
2018-05-15T12:27:07.501Z,22.80
2018-05-15T12:29:34.992Z,22.90
2018-05-15T12:32:02.486Z,23.00
2018-05-15T12:34:30.096Z,23.10
2018-05-15T12:36:57.609Z,23.10
2018-05-15T12:39:25.113Z,23.10
2018-05-15T12:41:53.582Z,23.10
2018-05-15T12:44:21.043Z,23.10
2018-05-15T12:46:49.383Z,23.10
2018-05-15T12:49:16.880Z,23.10
2018-05-15T12:51:45.267Z,23.10
2018-05-15T12:54:12.831Z,23.00
2018-05-15T12:56:40.336Z,23.10
2018-05-15T12:59:07.874Z,23.10
2018-05-15T13:01:35.404Z,23.10
2018-05-15T13:04:02.962Z,23.10
2018-05-15T13:06:30.458Z,23.20
2018-05-15T13:08:58.175Z,23.20
2018-05-15T13:11:26.440Z,23.20
2018-05-15T13:13:54.748Z,23.20
2018-05-15T13:16:22.263Z,23.10
2018-05-15T13:18:49.776Z,23.10
2018-05-15T13:21:17.297Z,23.10
2018-05-15T13:23:45.554Z,23.20
2018-05-15T13:26:13.141Z,23.20
2018-05-15T13:28:41.413Z,23.30
2018-05-15T13:31:09.714Z,23.30
2018-05-15T13:33:37.273Z,23.30
2018-05-15T13:36:04.806Z,23.20
2018-05-15T13:38:33.108Z,23.20
2018-05-15T13:41:01.095Z,23.10
2018-05-15T13:43:28.626Z,23.10
2018-05-15T13:45:56.134Z,23.20
2018-05-15T13:48:23.630Z,23.20
2018-05-15T13:50:51.911Z,23.30
2018-05-15T13:53:19.403Z,23.30
2018-05-15T13:55:46.923Z,23.30
2018-05-15T13:58:15.213Z,23.30
2018-05-15T14:00:42.705Z,23.30
2018-05-15T14:03:10.242Z,23.30
2018-05-15T14:05:37.779Z,23.30
2018-05-15T14:08:05.348Z,23.20
2018-05-15T14:10:32.857Z,23.10
2018-05-15T14:13:00.374Z,23.20
2018-05-15T14:15:27.914Z,23.20
2018-05-15T14:17:55.474Z,23.20
2018-05-15T14:20:22.968Z,23.30
2018-05-15T14:22:50.472Z,23.40
2018-05-15T14:25:18.758Z,23.40
2018-05-15T14:27:47.052Z,23.40
2018-05-15T14:30:14.606Z,23.40
2018-05-15T14:32:42.155Z,23.40
2018-05-15T14:35:10.439Z,23.30
2018-05-15T14:37:37.950Z,23.30
2018-05-15T14:40:05.548Z,23.30
2018-05-15T14:42:45.815Z,23.40
2018-05-15T14:45:15.824Z,23.40
2018-05-15T14:47:44.109Z,23.50
2018-05-15T14:50:11.605Z,23.50
2018-05-15T14:52:39.100Z,23.50
2018-05-15T14:55:07.386Z,23.50
2018-05-15T14:57:35.666Z,23.50
2018-05-15T15:00:03.958Z,23.60
2018-05-15T15:02:31.447Z,23.50
2018-05-15T15:04:59.059Z,23.50
2018-05-15T15:07:27.311Z,23.60
2018-05-15T15:09:54.896Z,23.50
2018-05-15T15:12:22.396Z,23.60
2018-05-15T15:14:49.916Z,23.60
2018-05-15T15:17:17.466Z,23.50
2018-05-15T15:19:45.721Z,23.50
2018-05-15T15:22:14.001Z,23.40
2018-05-15T15:24:41.494Z,23.40
2018-05-15T15:27:09.032Z,23.30
2018-05-15T15:29:37.287Z,23.40
2018-05-15T15:32:04.803Z,23.30
2018-05-15T15:37:06.118Z,23.60
2018-05-15T15:39:33.607Z,23.70
2018-05-15T15:42:01.109Z,23.60
2018-05-15T15:44:28.624Z,23.60
2018-05-15T15:46:56.127Z,23.50
2018-05-15T15:49:23.728Z,23.40
2018-05-15T15:51:51.981Z,23.40
2018-05-15T15:54:19.496Z,23.40
2018-05-15T15:56:46.991Z,23.40
2018-05-15T15:59:15.259Z,23.30
2018-05-15T16:01:42.762Z,23.30
2018-05-15T16:04:10.378Z,23.30
2018-05-15T16:06:37.875Z,23.40
2018-05-15T16:09:05.439Z,23.40
2018-05-15T16:11:33.007Z,23.40
2018-05-15T16:14:00.510Z,23.40
2018-05-15T16:16:28.204Z,23.40
2018-05-15T16:18:56.487Z,23.40
2018-05-15T16:21:24.749Z,23.40
2018-05-15T16:23:53.051Z,23.40
2018-05-15T16:26:20.567Z,23.40
2018-05-15T16:28:48.154Z,23.40
2018-05-15T16:31:16.454Z,23.40
2018-05-15T16:33:43.987Z,23.40
2018-05-15T16:36:12.243Z,23.60
2018-05-15T16:38:39.753Z,23.50
2018-05-15T16:41:07.256Z,23.60
2018-05-15T16:43:34.844Z,23.60
2018-05-15T16:46:02.285Z,23.60
2018-05-15T16:48:30.559Z,23.60
2018-05-15T16:50:58.135Z,23.50
2018-05-15T16:53:26.458Z,23.40
2018-05-15T16:55:53.952Z,23.40
2018-05-15T16:58:21.441Z,23.40
2018-05-15T17:00:48.951Z,23.40
2018-05-15T17:03:16.542Z,23.40
2018-05-15T17:05:44.918Z,23.30
2018-05-15T17:08:13.222Z,23.20
2018-05-15T17:10:40.765Z,23.20
2018-05-15T17:13:09.074Z,23.20
2018-05-15T17:15:36.545Z,23.10
2018-05-15T17:18:04.149Z,23.10
2018-05-15T17:20:32.535Z,23.10
2018-05-15T17:23:00.817Z,23.00
2018-05-15T17:25:28.401Z,23.00
2018-05-15T17:27:55.927Z,23.00
2018-05-15T17:30:24.188Z,23.10
2018-05-15T17:32:52.478Z,23.10
2018-05-15T17:35:20.759Z,23.10
2018-05-15T17:37:48.272Z,23.10
2018-05-15T17:40:15.778Z,23.10
2018-05-15T17:42:43.295Z,23.10
2018-05-15T17:45:10.799Z,23.10
2018-05-15T17:47:38.363Z,23.10
2018-05-15T17:50:05.883Z,23.00
2018-05-15T17:52:33.476Z,23.00
2018-05-15T17:55:00.988Z,22.90
2018-05-15T17:57:28.478Z,22.90
2018-05-15T17:59:56.776Z,22.80
2018-05-15T18:02:24.259Z,22.80
2018-05-15T18:04:51.774Z,22.80
2018-05-15T18:07:20.032Z,22.70
2018-05-15T18:09:48.326Z,22.70
2018-05-15T18:12:16.602Z,22.70
2018-05-15T18:14:44.859Z,22.60
2018-05-15T18:17:13.140Z,22.60
2018-05-15T18:19:41.435Z,22.50
2018-05-15T18:22:08.958Z,22.50
2018-05-15T18:24:36.450Z,22.40
2018-05-15T18:27:04.715Z,22.30
2018-05-15T18:29:33.103Z,22.20
2018-05-15T18:32:00.599Z,22.20
2018-05-15T18:34:28.112Z,22.20
2018-05-15T18:36:56.398Z,22.00
2018-05-15T18:39:23.909Z,22.00
2018-05-15T18:41:51.409Z,22.00
2018-05-15T18:44:19.684Z,21.80
2018-05-15T18:46:47.939Z,21.80
2018-05-15T18:49:15.522Z,21.70
2018-05-15T18:51:43.779Z,21.60
2018-05-15T18:54:11.258Z,21.60
2018-05-15T18:56:39.526Z,21.50
2018-05-15T18:59:07.806Z,21.50
2018-05-15T19:01:36.087Z,21.40
2018-05-15T19:04:03.578Z,21.40
2018-05-15T19:06:31.095Z,21.40
2018-05-15T19:08:59.379Z,21.30
2018-05-15T19:11:26.895Z,21.20
2018-05-15T19:13:54.493Z,21.20
2018-05-15T19:16:22.019Z,21.10
2018-05-15T19:18:49.537Z,21.00
2018-05-15T19:21:17.047Z,21.00
2018-05-15T19:23:44.554Z,20.90
2018-05-15T19:26:12.083Z,20.90
2018-05-15T19:28:39.643Z,20.80
2018-05-15T19:31:07.131Z,20.70
2018-05-15T19:33:39.422Z,20.60
2018-05-15T19:36:09.790Z,20.60
2018-05-15T19:38:38.082Z,20.60
2018-05-15T19:41:06.371Z,20.60
2018-05-15T19:43:33.863Z,20.60
2018-05-15T19:46:01.387Z,20.50
2018-05-15T19:48:28.874Z,20.40
2018-05-15T19:50:56.381Z,20.40
2018-05-15T19:53:24.639Z,20.40
2018-05-15T19:55:52.922Z,20.40
2018-05-15T19:58:21.210Z,20.40
2018-05-15T20:00:49.491Z,20.30
2018-05-15T20:03:16.986Z,20.30
2018-05-15T20:05:44.503Z,20.30
2018-05-15T20:08:12.770Z,20.30
2018-05-15T20:10:41.023Z,20.20
2018-05-15T20:13:08.619Z,20.20
2018-05-15T20:15:36.104Z,20.20
2018-05-15T20:18:03.607Z,20.10
2018-05-15T20:20:31.878Z,20.10
2018-05-15T20:22:59.460Z,20.00
2018-05-15T20:25:27.729Z,20.00
2018-05-15T20:27:55.983Z,20.00
2018-05-15T20:30:23.491Z,20.00
2018-05-15T20:32:51.043Z,20.00
2018-05-15T20:35:18.691Z,20.00
2018-05-15T20:37:46.966Z,19.90
2018-05-15T20:40:15.250Z,19.90
2018-05-15T20:42:42.814Z,19.90
2018-05-15T20:45:10.365Z,19.90
2018-05-15T20:47:38.639Z,19.90
2018-05-15T20:50:06.886Z,19.90
2018-05-15T20:52:34.478Z,19.90
2018-05-15T20:55:02.763Z,20.00
2018-05-15T20:57:30.283Z,19.90
2018-05-15T20:59:57.781Z,20.00
2018-05-15T21:02:25.330Z,20.00
2018-05-15T21:04:53.715Z,20.00
2018-05-15T21:07:21.270Z,20.00
2018-05-15T21:09:48.775Z,20.10
2018-05-15T21:12:16.290Z,20.10
2018-05-15T21:14:43.803Z,20.10
2018-05-15T21:17:11.295Z,20.00
2018-05-15T21:19:39.578Z,20.00
2018-05-15T21:22:07.075Z,20.00
2018-05-15T21:24:34.595Z,20.00
2018-05-15T21:27:02.149Z,19.90
2018-05-15T21:29:30.433Z,19.90
2018-05-15T21:31:57.933Z,19.90
2018-05-15T21:34:25.487Z,19.90
2018-05-15T21:36:53.037Z,19.90
2018-05-15T21:39:20.506Z,19.90
2018-05-15T21:41:48.027Z,19.90
2018-05-15T21:44:15.558Z,19.90
2018-05-15T21:46:44.581Z,19.80
2018-05-15T21:49:13.042Z,19.80
2018-05-15T21:51:40.580Z,19.70
2018-05-15T21:54:08.074Z,19.80
2018-05-15T21:56:35.587Z,19.70
2018-05-15T21:59:03.079Z,19.70
2018-05-15T22:01:31.371Z,19.70
2018-05-15T22:03:58.870Z,19.70
2018-05-15T22:06:26.370Z,19.70
2018-05-15T22:08:54.648Z,19.60
2018-05-15T22:11:21.654Z,19.60
2018-05-15T22:14:01.071Z,19.60
2018-05-15T22:16:40.634Z,19.60
2018-05-15T22:19:20.118Z,19.60
2018-05-15T22:21:59.654Z,19.60
2018-05-15T22:24:28.948Z,19.60
2018-05-15T22:26:57.231Z,19.50
2018-05-15T22:29:24.802Z,19.50
2018-05-15T22:31:52.350Z,19.50
2018-05-15T22:34:20.636Z,19.40
2018-05-15T22:36:48.131Z,19.40
2018-05-15T22:39:15.636Z,19.30
2018-05-15T22:41:43.995Z,19.20
2018-05-15T22:44:11.439Z,19.20
2018-05-15T22:46:38.962Z,19.20
2018-05-15T22:49:06.503Z,19.10
2018-05-15T22:51:34.052Z,19.10
2018-05-15T22:54:02.311Z,19.00
2018-05-15T22:56:30.695Z,19.00
2018-05-15T22:58:58.959Z,19.00
2018-05-15T23:01:26.534Z,18.90
2018-05-15T23:03:54.811Z,18.90
2018-05-15T23:06:23.123Z,18.90
2018-05-15T23:08:50.655Z,18.90
2018-05-15T23:11:18.902Z,18.90
2018-05-15T23:13:46.482Z,18.90
2018-05-15T23:16:14.754Z,18.80
2018-05-15T23:18:43.047Z,18.80
2018-05-15T23:23:08.947Z,18.70
2018-05-15T23:25:36.467Z,18.70
2018-05-15T23:28:03.974Z,18.70
2018-05-15T23:30:32.272Z,18.50
2018-05-15T23:32:59.790Z,18.50
2018-05-15T23:35:27.305Z,18.50
2018-05-15T23:37:54.849Z,18.40
2018-05-15T23:40:22.380Z,18.30
2018-05-15T23:42:49.875Z,18.30
2018-05-15T23:45:17.380Z,18.20
2018-05-15T23:47:44.975Z,18.20
2018-05-15T23:50:13.258Z,18.10
2018-05-15T23:52:40.751Z,18.10
2018-05-15T23:55:08.255Z,18.10
2018-05-15T23:57:36.539Z,17.90
